Berlinville, Ohio
Current Conditions -  °F | °C
As of 2:53 AM on Monday 22 Dec 2014 (Local Time) from KLPR Reporting Station
Haze Haze  
Wind Chill: 16°   Ceiling: Unl
Heat Index: 22°   Visibility: 5mi
Dew Point: 19°   Wind: 5mph
Humidity: 89%   Direction: 140°SE
Pressure: 30.14"   Gusts: NA
Location:  41.3216°N, 82.4633°W
Report Text: KLPR 220753Z AUTO 14004KT 5SM BR CLR M06/M07 A3014 RMK AO2 SLP217 T10561072 TSNO
Loading
Personal Weather Stations






























Interactive Weather Map New forecast layout! Learn more

10-Day Weather Forecast

Advertisements
Track Severe Weather on mobile